NKS676 KFLL-KMCO
Flight info
| Callsign | NKS676 |
|---|---|
| Flight time | 0h 35m |
| Altitude | 20000 |
| Route | FRSBE2 WAPOM MUNGI1 |
| Aircraft | A21N/M-SDE2E3FGHIRWXY/LB1 |
Departure
| Time | 2026-05-05 01:32 |
|---|---|
| Airport | Fort Lauderdale Hollywood International Airport (KFLL) |
Arrival
| Time | 2026-05-05 02:07 |
|---|---|
| Airport | Orlando International Airport (KMCO) |
| Time | Latitude | Longitude | Altitude | Speed | Heading |
|---|---|---|---|---|---|
| 2026-05-05 01:17 | 26.06881 | -80.14297 | -3 ft | 0 kts | 0° |
| 2026-05-05 01:19 | 26.06880 | -80.14297 | -3 ft | 0 kts | 0° |
| 2026-05-05 01:20 | 26.06872 | -80.14297 | 17 ft | 4 kts | 0° |
| 2026-05-05 01:20 | 26.06846 | -80.14297 | 18 ft | 3 kts | 0° |
| 2026-05-05 01:21 | 26.06824 | -80.14300 | 17 ft | 2 kts | 326° |
| 2026-05-05 01:21 | 26.06819 | -80.14306 | 18 ft | 4 kts | 278° |
| 2026-05-05 01:21 | 26.06818 | -80.14321 | 16 ft | 0 kts | 267° |
| 2026-05-05 01:26 | 26.06818 | -80.14323 | 16 ft | 2 kts | 267° |
| 2026-05-05 01:26 | 26.06817 | -80.14427 | 16 ft | 20 kts | 270° |
| 2026-05-05 01:26 | 26.06831 | -80.14600 | 17 ft | 20 kts | 302° |
| 2026-05-05 01:26 | 26.06917 | -80.14685 | 16 ft | 16 kts | 316° |
| 2026-05-05 01:27 | 26.06940 | -80.14794 | 16 ft | 15 kts | 262° |
| 2026-05-05 01:27 | 26.06992 | -80.14891 | 16 ft | 16 kts | 315° |
| 2026-05-05 01:27 | 26.07081 | -80.14983 | 17 ft | 19 kts | 316° |
| 2026-05-05 01:27 | 26.07178 | -80.15090 | 16 ft | 14 kts | 316° |
| 2026-05-05 01:28 | 26.07207 | -80.15160 | 16 ft | 12 kts | 279° |
| 2026-05-05 01:28 | 26.07210 | -80.15200 | 16 ft | 6 kts | 268° |
| 2026-05-05 01:28 | 26.07225 | -80.15290 | 17 ft | 10 kts | 324° |
| 2026-05-05 01:28 | 26.07323 | -80.15302 | 16 ft | 17 kts | 360° |
| 2026-05-05 01:29 | 26.07464 | -80.15299 | 16 ft | 23 kts | 0° |
| 2026-05-05 01:29 | 26.07558 | -80.15333 | 16 ft | 10 kts | 286° |
| 2026-05-05 01:29 | 26.07565 | -80.15468 | 16 ft | 21 kts | 271° |
| 2026-05-05 01:29 | 26.07567 | -80.15652 | 16 ft | 26 kts | 268° |
| 2026-05-05 01:30 | 26.07568 | -80.15861 | 16 ft | 28 kts | 272° |
| 2026-05-05 01:30 | 26.07569 | -80.16088 | 17 ft | 31 kts | 270° |
| 2026-05-05 01:30 | 26.07570 | -80.16334 | 17 ft | 33 kts | 269° |
| 2026-05-05 01:30 | 26.07571 | -80.16528 | 17 ft | 17 kts | 270° |
| 2026-05-05 01:31 | 26.07580 | -80.16622 | 19 ft | 4 kts | 304° |
| 2026-05-05 01:31 | 26.07668 | -80.16643 | 18 ft | 17 kts | 2° |
| 2026-05-05 01:31 | 26.07695 | -80.16551 | 18 ft | 16 kts | 87° |
| 2026-05-05 01:31 | 26.07693 | -80.16153 | 20 ft | 99 kts | 90° |
| 2026-05-05 01:32 | 26.07687 | -80.15077 | 47 ft | 173 kts | 89° |
| 2026-05-05 01:32 | 26.07648 | -80.13662 | 702 ft | 196 kts | 92° |
| 2026-05-05 01:32 | 26.07576 | -80.11979 | 1064 ft | 243 kts | 91° |
| 2026-05-05 01:32 | 26.07686 | -80.10046 | 1878 ft | 250 kts | 76° |
| 2026-05-05 01:33 | 26.08276 | -80.08264 | 3052 ft | 253 kts | 66° |
| 2026-05-05 01:33 | 26.09270 | -80.06617 | 3620 ft | 261 kts | 43° |
| 2026-05-05 01:33 | 26.10557 | -80.05732 | 3877 ft | 265 kts | 21° |
| 2026-05-05 01:33 | 26.12307 | -80.05216 | 4511 ft | 272 kts | 13° |
| 2026-05-05 01:34 | 26.14167 | -80.04796 | 5678 ft | 273 kts | 7° |
| 2026-05-05 01:34 | 26.16074 | -80.04826 | 6669 ft | 279 kts | 348° |
| 2026-05-05 01:34 | 26.17925 | -80.05492 | 7700 ft | 281 kts | 336° |
| 2026-05-05 01:34 | 26.19762 | -80.06253 | 8690 ft | 286 kts | 338° |
| 2026-05-05 01:35 | 26.21574 | -80.07178 | 9669 ft | 286 kts | 320° |
| 2026-05-05 01:35 | 26.22914 | -80.08792 | 10529 ft | 289 kts | 297° |
| 2026-05-05 01:35 | 26.23738 | -80.10869 | 10934 ft | 310 kts | 289° |
| 2026-05-05 01:35 | 26.24535 | -80.13193 | 11363 ft | 329 kts | 289° |
| 2026-05-05 01:36 | 26.25399 | -80.15581 | 12232 ft | 334 kts | 293° |
| 2026-05-05 01:36 | 26.26549 | -80.17854 | 13137 ft | 339 kts | 300° |
| 2026-05-05 01:36 | 26.27804 | -80.20033 | 13973 ft | 342 kts | 300° |
| 2026-05-05 01:36 | 26.28226 | -80.20769 | 14226 ft | 343 kts | 300° |
| 2026-05-05 01:37 | 26.29224 | -80.22515 | 14866 ft | 343 kts | 300° |
| 2026-05-05 01:37 | 26.30508 | -80.24770 | 15710 ft | 344 kts | 300° |
| 2026-05-05 01:37 | 26.31794 | -80.27029 | 16483 ft | 347 kts | 300° |
| 2026-05-05 01:38 | 26.33088 | -80.29306 | 17265 ft | 348 kts | 299° |
| 2026-05-05 01:38 | 26.34385 | -80.31590 | 18042 ft | 350 kts | 299° |
| 2026-05-05 01:38 | 26.35690 | -80.33890 | 18721 ft | 353 kts | 299° |
| 2026-05-05 01:38 | 26.37014 | -80.36227 | 19344 ft | 356 kts | 299° |
| 2026-05-05 01:39 | 26.37775 | -80.37570 | 19658 ft | 358 kts | 299° |
| 2026-05-05 01:39 | 26.39110 | -80.39930 | 19928 ft | 360 kts | 299° |
| 2026-05-05 01:39 | 26.40447 | -80.42293 | 20032 ft | 360 kts | 299° |
| 2026-05-05 01:39 | 26.41778 | -80.44646 | 20025 ft | 360 kts | 299° |
| 2026-05-05 01:40 | 26.42321 | -80.45606 | 20022 ft | 360 kts | 299° |
| 2026-05-05 01:40 | 26.43209 | -80.47178 | 20025 ft | 360 kts | 299° |
| 2026-05-05 01:40 | 26.44544 | -80.49540 | 20020 ft | 360 kts | 299° |
| 2026-05-05 01:40 | 26.45260 | -80.50809 | 20021 ft | 360 kts | 299° |
| 2026-05-05 01:41 | 26.46602 | -80.53169 | 20023 ft | 361 kts | 301° |
| 2026-05-05 01:41 | 26.48297 | -80.55306 | 20031 ft | 367 kts | 315° |
| 2026-05-05 01:41 | 26.50405 | -80.56890 | 20036 ft | 375 kts | 328° |
| 2026-05-05 01:41 | 26.52879 | -80.57889 | 20030 ft | 383 kts | 339° |
| 2026-05-05 01:42 | 26.55448 | -80.58684 | 20028 ft | 383 kts | 339° |
| 2026-05-05 01:42 | 26.57892 | -80.59450 | 20029 ft | 383 kts | 338° |
| 2026-05-05 01:42 | 26.60489 | -80.60271 | 20019 ft | 382 kts | 338° |
| 2026-05-05 01:42 | 26.63046 | -80.61083 | 20021 ft | 382 kts | 338° |
| 2026-05-05 01:43 | 26.65604 | -80.61898 | 20023 ft | 382 kts | 338° |
| 2026-05-05 01:43 | 26.68123 | -80.62702 | 20025 ft | 383 kts | 338° |
| 2026-05-05 01:43 | 26.70725 | -80.63532 | 20027 ft | 383 kts | 338° |
| 2026-05-05 01:43 | 26.73281 | -80.64347 | 20029 ft | 383 kts | 338° |
| 2026-05-05 01:44 | 26.75843 | -80.65164 | 20029 ft | 383 kts | 338° |
| 2026-05-05 01:44 | 26.78409 | -80.65983 | 20032 ft | 382 kts | 338° |
| 2026-05-05 01:44 | 26.80962 | -80.66798 | 20034 ft | 383 kts | 338° |
| 2026-05-05 01:44 | 26.83530 | -80.67617 | 20031 ft | 383 kts | 338° |
| 2026-05-05 01:45 | 26.86078 | -80.68431 | 20033 ft | 382 kts | 338° |
| 2026-05-05 01:45 | 26.88647 | -80.69251 | 20032 ft | 383 kts | 338° |
| 2026-05-05 01:45 | 26.91205 | -80.70068 | 20032 ft | 383 kts | 338° |
| 2026-05-05 01:45 | 26.93716 | -80.70931 | 20035 ft | 381 kts | 336° |
| 2026-05-05 01:46 | 26.96219 | -80.71888 | 20039 ft | 381 kts | 335° |
| 2026-05-05 01:46 | 26.98723 | -80.72867 | 20039 ft | 381 kts | 335° |
| 2026-05-05 01:46 | 27.01223 | -80.73838 | 20042 ft | 381 kts | 335° |
| 2026-05-05 01:46 | 27.03767 | -80.74814 | 20045 ft | 381 kts | 335° |
| 2026-05-05 01:47 | 27.06280 | -80.75771 | 20047 ft | 381 kts | 336° |
| 2026-05-05 01:47 | 27.08789 | -80.76723 | 20046 ft | 381 kts | 336° |
| 2026-05-05 01:47 | 27.11310 | -80.77678 | 20051 ft | 381 kts | 336° |
| 2026-05-05 01:47 | 27.13822 | -80.78630 | 20051 ft | 381 kts | 336° |
| 2026-05-05 01:48 | 27.16331 | -80.79581 | 20053 ft | 382 kts | 336° |
| 2026-05-05 01:48 | 27.18851 | -80.80537 | 20055 ft | 381 kts | 336° |
| 2026-05-05 01:48 | 27.21363 | -80.81490 | 20054 ft | 381 kts | 336° |
| 2026-05-05 01:48 | 27.23873 | -80.82443 | 20056 ft | 382 kts | 336° |
| 2026-05-05 01:49 | 27.26387 | -80.83398 | 20055 ft | 382 kts | 336° |
| 2026-05-05 01:49 | 27.28898 | -80.84352 | 20054 ft | 381 kts | 336° |
| 2026-05-05 01:49 | 27.31416 | -80.85310 | 20055 ft | 381 kts | 336° |
| 2026-05-05 01:49 | 27.33947 | -80.86134 | 20056 ft | 384 kts | 340° |
| 2026-05-05 01:50 | 27.36533 | -80.86893 | 20054 ft | 384 kts | 340° |
| 2026-05-05 01:50 | 27.39108 | -80.87656 | 20054 ft | 384 kts | 340° |
| 2026-05-05 01:50 | 27.41687 | -80.88422 | 20051 ft | 384 kts | 340° |
| 2026-05-05 01:50 | 27.44268 | -80.89191 | 20047 ft | 384 kts | 340° |
| 2026-05-05 01:51 | 27.45461 | -80.89546 | 20054 ft | 384 kts | 340° |
| 2026-05-05 01:51 | 27.48109 | -80.90334 | 20050 ft | 384 kts | 340° |
| 2026-05-05 01:51 | 27.50681 | -80.91099 | 20049 ft | 384 kts | 340° |
| 2026-05-05 01:51 | 27.53257 | -80.91867 | 20050 ft | 384 kts | 340° |
| 2026-05-05 01:52 | 27.55842 | -80.92637 | 20042 ft | 379 kts | 340° |
| 2026-05-05 01:52 | 27.58318 | -80.93367 | 19897 ft | 357 kts | 340° |
| 2026-05-05 01:52 | 27.60645 | -80.94053 | 19716 ft | 336 kts | 339° |
| 2026-05-05 01:52 | 27.62796 | -80.94691 | 19291 ft | 327 kts | 339° |
| 2026-05-05 01:53 | 27.64980 | -80.95349 | 18651 ft | 325 kts | 339° |
| 2026-05-05 01:53 | 27.67166 | -80.96010 | 17951 ft | 323 kts | 339° |
| 2026-05-05 01:53 | 27.69329 | -80.96665 | 17274 ft | 321 kts | 340° |
| 2026-05-05 01:53 | 27.71451 | -80.97307 | 16599 ft | 319 kts | 340° |
| 2026-05-05 01:54 | 27.73587 | -80.97952 | 15944 ft | 317 kts | 341° |
| 2026-05-05 01:54 | 27.75730 | -80.98598 | 15304 ft | 315 kts | 341° |
| 2026-05-05 01:54 | 27.77819 | -80.99228 | 14667 ft | 313 kts | 342° |
| 2026-05-05 01:54 | 27.79914 | -80.99858 | 14074 ft | 311 kts | 343° |
| 2026-05-05 01:55 | 27.82013 | -81.00488 | 13429 ft | 308 kts | 343° |
| 2026-05-05 01:55 | 27.84025 | -81.01087 | 13208 ft | 292 kts | 343° |
| 2026-05-05 01:55 | 27.85949 | -81.01657 | 12846 ft | 283 kts | 343° |
| 2026-05-05 01:55 | 27.87844 | -81.02220 | 12449 ft | 281 kts | 343° |
| 2026-05-05 01:56 | 27.89728 | -81.02781 | 12061 ft | 279 kts | 343° |
| 2026-05-05 01:56 | 27.91595 | -81.03338 | 11669 ft | 277 kts | 343° |
| 2026-05-05 01:56 | 27.93453 | -81.03901 | 11294 ft | 275 kts | 340° |
| 2026-05-05 01:56 | 27.95244 | -81.04638 | 10906 ft | 273 kts | 337° |
| 2026-05-05 01:57 | 27.97007 | -81.05390 | 10544 ft | 271 kts | 337° |
| 2026-05-05 01:57 | 27.98767 | -81.06135 | 10169 ft | 269 kts | 337° |
| 2026-05-05 01:57 | 28.00513 | -81.06872 | 10043 ft | 268 kts | 337° |
| 2026-05-05 01:57 | 28.02246 | -81.07605 | 10010 ft | 269 kts | 337° |
| 2026-05-05 01:58 | 28.03997 | -81.08345 | 9978 ft | 263 kts | 337° |
| 2026-05-05 01:58 | 28.05654 | -81.09044 | 9874 ft | 250 kts | 337° |
| 2026-05-05 01:58 | 28.07248 | -81.09718 | 9592 ft | 243 kts | 337° |
| 2026-05-05 01:58 | 28.08824 | -81.10387 | 9172 ft | 242 kts | 337° |
| 2026-05-05 01:59 | 28.10394 | -81.11047 | 8758 ft | 240 kts | 337° |
| 2026-05-05 01:59 | 28.11963 | -81.11702 | 8374 ft | 239 kts | 337° |
| 2026-05-05 01:59 | 28.13523 | -81.12353 | 7990 ft | 238 kts | 337° |
| 2026-05-05 01:59 | 28.15072 | -81.12999 | 7622 ft | 237 kts | 337° |
| 2026-05-05 02:00 | 28.16497 | -81.13869 | 7236 ft | 232 kts | 313° |
| 2026-05-05 02:00 | 28.17309 | -81.15397 | 6836 ft | 226 kts | 281° |
| 2026-05-05 02:00 | 28.17442 | -81.17161 | 6454 ft | 225 kts | 269° |
| 2026-05-05 02:00 | 28.17507 | -81.18924 | 6116 ft | 223 kts | 274° |
| 2026-05-05 02:01 | 28.17747 | -81.20670 | 5981 ft | 229 kts | 281° |
| 2026-05-05 02:01 | 28.18116 | -81.22258 | 5937 ft | 226 kts | 285° |
| 2026-05-05 02:01 | 28.18615 | -81.23966 | 5648 ft | 224 kts | 288° |
| 2026-05-05 02:01 | 28.19143 | -81.25603 | 5223 ft | 224 kts | 289° |
| 2026-05-05 02:02 | 28.19695 | -81.27266 | 4721 ft | 226 kts | 289° |
| 2026-05-05 02:02 | 28.20252 | -81.28945 | 4169 ft | 230 kts | 290° |
| 2026-05-05 02:02 | 28.20831 | -81.30655 | 3722 ft | 233 kts | 295° |
| 2026-05-05 02:02 | 28.21840 | -81.32042 | 3366 ft | 230 kts | 329° |
| 2026-05-05 02:03 | 28.23320 | -81.32598 | 3066 ft | 222 kts | 1° |
| 2026-05-05 02:03 | 28.24854 | -81.32505 | 3019 ft | 217 kts | 9° |
| 2026-05-05 02:03 | 28.26271 | -81.32326 | 2995 ft | 193 kts | 9° |
| 2026-05-05 02:03 | 28.27559 | -81.32196 | 2908 ft | 181 kts | 9° |
| 2026-05-05 02:04 | 28.28814 | -81.32111 | 2712 ft | 181 kts | 6° |
| 2026-05-05 02:04 | 28.30063 | -81.32101 | 2397 ft | 180 kts | 5° |
| 2026-05-05 02:04 | 28.31258 | -81.32110 | 2120 ft | 165 kts | 5° |
| 2026-05-05 02:04 | 28.32439 | -81.32107 | 1896 ft | 167 kts | 5° |
| 2026-05-05 02:05 | 28.33588 | -81.32154 | 1782 ft | 167 kts | 4° |
| 2026-05-05 02:05 | 28.34474 | -81.32176 | 1632 ft | 167 kts | 6° |
| 2026-05-05 02:05 | 28.35621 | -81.32140 | 1373 ft | 164 kts | 6° |
| 2026-05-05 02:05 | 28.36762 | -81.32150 | 1105 ft | 165 kts | 5° |
| 2026-05-05 02:06 | 28.37781 | -81.32169 | 855 ft | 160 kts | 2° |
| 2026-05-05 02:06 | 28.38891 | -81.32171 | 682 ft | 161 kts | 6° |
| 2026-05-05 02:06 | 28.40014 | -81.32187 | 458 ft | 161 kts | 2° |
| 2026-05-05 02:06 | 28.41137 | -81.32194 | 224 ft | 163 kts | 2° |
| 2026-05-05 02:07 | 28.42252 | -81.32205 | 107 ft | 153 kts | 2° |
| 2026-05-05 02:07 | 28.43153 | -81.32211 | 98 ft | 104 kts | 358° |
| 2026-05-05 02:07 | 28.43702 | -81.32219 | 101 ft | 65 kts | 358° |
| 2026-05-05 02:07 | 28.43931 | -81.32159 | 99 ft | 21 kts | 42° |
| 2026-05-05 02:08 | 28.43986 | -81.32011 | 102 ft | 12 kts | 94° |
| 2026-05-05 02:08 | 28.43965 | -81.31961 | 99 ft | 16 kts | 118° |
| 2026-05-05 02:08 | 28.43907 | -81.31859 | 99 ft | 9 kts | 154° |
| 2026-05-05 02:08 | 28.43854 | -81.31802 | 102 ft | 15 kts | 102° |
| 2026-05-05 02:09 | 28.43849 | -81.31674 | 106 ft | 16 kts | 94° |
| 2026-05-05 02:09 | 28.43840 | -81.31544 | 105 ft | 18 kts | 96° |
| 2026-05-05 02:09 | 28.43807 | -81.31394 | 101 ft | 21 kts | 108° |
| 2026-05-05 02:09 | 28.43747 | -81.31244 | 96 ft | 11 kts | 133° |
| 2026-05-05 02:10 | 28.43725 | -81.31220 | 97 ft | 9 kts | 136° |
| 2026-05-05 02:10 | 28.43714 | -81.31214 | 97 ft | 2 kts | 154° |
| 2026-05-05 02:10 | 28.43699 | -81.31203 | 97 ft | 1 kts | 150° |
| 2026-05-05 02:10 | 28.43689 | -81.31198 | 95 ft | 2 kts | 157° |
| 2026-05-05 02:11 | 28.43685 | -81.31208 | 97 ft | 3 kts | 228° |
| 2026-05-05 02:11 | 28.43662 | -81.31233 | 94 ft | 2 kts | 213° |
| 2026-05-05 02:11 | 28.43627 | -81.31248 | 96 ft | 8 kts | 202° |
| 2026-05-05 02:11 | 28.43606 | -81.31258 | 96 ft | 0 kts | 201° |